sim
Sign-in with your pilot id or email,
or register
Callsign
Passwort

Schedule Details

Flight Number: OEO8902
Departure: Aberdeen International Airport (EGPD) at 11:50
Arrival: Munich Airport (EDDM) at 14:10

Weather Information
Getting current METAR information for EGPD 010120Z AUTO 32011KT 8000 BKN007 OVC022 09/08 Q0995 TEMPO RA BKN006
Getting current METAR information for EDDM 010120Z 07001KT 1200 0500NE R08L/0500D R08R/1100D BCFG NSC 05/04 Q1011 BECMG 0600 FG

Schedule Frequency

Route Map